Avila Beach, California
Current Conditions -  °F | °C
As of 7:56 PM on Friday 28 Nov 2014 (Local Time) from KSBP Reporting Station
Clear Clear  
Wind Chill: 50°   Ceiling: Unl
Heat Index: 50°   Visibility: 10mi
Dew Point: 46°   Wind: 3mph
Humidity: 86%   Direction: 110°ESE
Pressure: 29.91"   Gusts: NA
Location:  35.18°N, 120.73°W
Report Text: KSBP 290356Z 11003KT 10SM CLR 10/08 A2991 RMK AO2 SLP129 T01000078
Loading
Personal Weather Stations






























Interactive Weather Map New forecast layout! Learn more

10-Day Weather Forecast

Advertisements
Track Severe Weather on mobile